Time;durP1;ratioP1;P1;durP2;ratioP2;P2;SDS_P1;SDS_P2;PMS_P1;PMS_P2;Temp;Humidity;BMP_temperature;BMP_pressure;BME280_temperature;BME280_humidity;BME280_pressure;Samples;Min_cycle;Max_cycle;Signal;HPM_P1;HPM_P2
2021/06/21 00:01:58;;;;;;;11.15;8.45;;;20.40;99.90;;;;;;5077998;28;20290;-72
2021/06/21 00:04:26;;;;;;;9.27;7.93;;;20.40;99.90;;;;;;5073949;28;20224;-71
2021/06/21 00:06:53;;;;;;;11.02;7.72;;;20.30;99.90;;;;;;5090791;28;20278;-71
2021/06/21 00:09:20;;;;;;;12.63;9.02;;;20.30;99.90;;;;;;5081316;28;20296;-70
2021/06/21 00:11:47;;;;;;;11.45;8.32;;;20.20;99.90;;;;;;5091827;28;20209;-70
2021/06/21 00:14:15;;;;;;;11.20;8.20;;;20.20;99.90;;;;;;5102108;28;20209;-71
2021/06/21 00:16:42;;;;;;;11.73;8.40;;;20.20;99.90;;;;;;5092737;28;20284;-70
2021/06/21 00:19:09;;;;;;;12.07;8.38;;;20.20;99.90;;;;;;5091109;28;20247;-70
2021/06/21 00:21:37;;;;;;;13.02;9.05;;;20.10;99.90;;;;;;5089461;28;20521;-69
2021/06/21 00:24:04;;;;;;;14.80;9.18;;;20.10;99.90;;;;;;5085209;28;20202;-69
2021/06/21 00:26:31;;;;;;;14.05;8.68;;;19.90;99.90;;;;;;5091539;28;20201;-69
2021/06/21 00:28:58;;;;;;;11.45;9.10;;;19.90;99.90;;;;;;5085164;28;20290;-69
2021/06/21 00:31:25;;;;;;;14.85;9.25;;;19.90;99.90;;;;;;5086088;28;20647;-69
2021/06/21 00:33:52;;;;;;;13.75;8.68;;;19.80;99.90;;;;;;5087456;28;20196;-69
2021/06/21 00:36:19;;;;;;;12.00;9.15;;;19.80;99.90;;;;;;5083520;28;20206;-69
2021/06/21 00:38:47;;;;;;;13.30;9.23;;;19.80;99.90;;;;;;5083285;28;20572;-69
2021/06/21 00:41:14;;;;;;;13.32;9.20;;;19.80;99.90;;;;;;5090560;28;20277;-69
2021/06/21 00:43:40;;;;;;;12.60;9.52;;;19.70;99.90;;;;;;5090452;28;20202;-69
2021/06/21 00:46:07;;;;;;;24.27;10.23;;;19.70;99.90;;;;;;5091385;28;20198;-69
2021/06/21 00:48:34;;;;;;;14.88;9.38;;;19.70;99.90;;;;;;5090090;28;20549;-69
2021/06/21 00:51:01;;;;;;;14.60;10.02;;;19.60;99.90;;;;;;5081405;28;20199;-69
2021/06/21 00:53:28;;;;;;;12.77;9.00;;;19.50;99.90;;;;;;5076341;28;20202;-69
2021/06/21 00:55:57;;;;;;;15.38;9.85;;;19.50;99.90;;;;;;5071709;28;20213;-69
2021/06/21 00:58:24;;;;;;;16.50;9.88;;;19.40;99.90;;;;;;5081430;28;20587;-69
2021/06/21 01:00:51;;;;;;;14.85;10.13;;;19.40;99.90;;;;;;5083493;28;20198;-69
2021/06/21 01:03:18;;;;;;;13.40;9.48;;;19.50;99.90;;;;;;5073067;28;20203;-69
2021/06/21 01:05:46;;;;;;;13.07;9.88;;;19.50;99.90;;;;;;5079337;28;20198;-69
2021/06/21 01:08:13;;;;;;;15.68;9.50;;;19.50;99.90;;;;;;5085826;28;20217;-69
2021/06/21 01:10:44;;;;;;;14.18;9.48;;;19.50;99.90;;;;;;5083880;28;20207;-69
2021/06/21 01:13:36;;;;;;;21.40;10.50;;;19.50;99.90;;;;;;5092119;28;20212;-69
2021/06/21 01:16:14;;;;;;;15.27;9.50;;;19.50;99.90;;;;;;5093495;28;20197;-69
2021/06/21 01:18:51;;;;;;;15.05;10.52;;;19.40;99.90;;;;;;5093800;28;20214;-69
2021/06/21 01:21:50;;;;;;;12.63;9.85;;;19.40;99.90;;;;;;5091689;28;20206;-69
2021/06/21 01:24:54;;;;;;;21.73;11.60;;;19.40;99.90;;;;;;5071324;28;20585;-69
2021/06/21 01:27:33;;;;;;;16.13;11.50;;;19.30;99.90;;;;;;5090440;28;20201;-69
2021/06/21 01:30:08;;;;;;;15.95;11.18;;;19.20;99.90;;;;;;5091415;28;20210;-69
2021/06/21 01:32:43;;;;;;;15.32;11.07;;;19.30;99.90;;;;;;5093792;28;20204;-69
2021/06/21 01:35:16;;;;;;;15.57;11.10;;;19.30;99.90;;;;;;5094206;28;20197;-69
2021/06/21 01:37:45;;;;;;;16.50;11.80;;;19.20;99.90;;;;;;5093911;28;20283;-69
2021/06/21 01:40:14;;;;;;;16.88;12.55;;;19.20;99.90;;;;;;5090024;28;20584;-69
2021/06/21 01:42:42;;;;;;;15.95;12.48;;;19.20;99.90;;;;;;5075544;28;20221;-69
2021/06/21 01:45:10;;;;;;;21.38;13.02;;;19.10;99.90;;;;;;5076984;28;20186;-69
2021/06/21 01:47:42;;;;;;;17.25;12.57;;;19.10;99.90;;;;;;5093795;28;20201;-69
2021/06/21 01:50:10;;;;;;;17.30;13.27;;;19.20;99.90;;;;;;5074418;28;20698;-69
2021/06/21 01:52:41;;;;;;;18.98;12.90;;;19.20;99.90;;;;;;5082761;28;20584;-69
2021/06/21 01:55:12;;;;;;;17.33;13.20;;;19.20;99.90;;;;;;5094841;28;20201;-69
2021/06/21 01:57:41;;;;;;;17.55;12.82;;;19.30;99.90;;;;;;5073700;28;20682;-70
2021/06/21 02:00:09;;;;;;;18.00;12.23;;;19.30;99.90;;;;;;5079113;28;20809;-72
2021/06/21 02:02:38;;;;;;;17.50;12.57;;;19.20;99.90;;;;;;5075169;28;20209;-72
2021/06/21 02:05:08;;;;;;;17.58;12.27;;;19.20;99.90;;;;;;5092788;28;20670;-72
2021/06/21 02:07:36;;;;;;;15.23;12.02;;;19.10;99.90;;;;;;5092390;28;20201;-72
2021/06/21 02:10:05;;;;;;;20.67;13.00;;;19.10;99.90;;;;;;5072389;28;20230;-72
2021/06/21 02:12:32;;;;;;;18.60;12.65;;;19.00;99.90;;;;;;5088008;28;20198;-73
2021/06/21 02:15:00;;;;;;;18.58;12.88;;;19.10;99.90;;;;;;5094258;28;20652;-73
2021/06/21 02:17:30;;;;;;;18.05;12.45;;;19.10;99.90;;;;;;5081309;28;20198;-73
2021/06/21 02:19:59;;;;;;;17.80;12.50;;;19.20;99.90;;;;;;5085553;28;20202;-73
2021/06/21 02:22:30;;;;;;;17.67;12.75;;;19.20;99.90;;;;;;5084530;28;20243;-73
2021/06/21 02:24:58;;;;;;;17.48;12.32;;;19.20;99.90;;;;;;5091010;28;20202;-73
2021/06/21 02:27:26;;;;;;;20.30;13.13;;;19.30;99.90;;;;;;5088608;28;20204;-73
2021/06/21 02:29:56;;;;;;;16.58;12.20;;;19.20;99.90;;;;;;5086594;28;20290;-73
2021/06/21 02:32:24;;;;;;;18.52;12.18;;;19.10;99.90;;;;;;5091303;28;20686;-73
2021/06/21 02:34:53;;;;;;;18.25;12.68;;;19.10;99.90;;;;;;5092483;28;20202;-73
2021/06/21 02:37:21;;;;;;;19.02;12.70;;;19.10;99.90;;;;;;5093354;28;20205;-73
2021/06/21 02:39:48;;;;;;;16.40;12.15;;;19.10;99.90;;;;;;5089570;28;20224;-74
2021/06/21 02:42:15;;;;;;;17.27;12.77;;;19.10;99.90;;;;;;5091089;28;20328;-73
2021/06/21 02:44:42;;;;;;;17.73;12.13;;;19.10;99.90;;;;;;5090004;28;20199;-73
2021/06/21 02:47:09;;;;;;;15.85;11.55;;;19.20;99.90;;;;;;5090940;28;20662;-73
2021/06/21 02:49:36;;;;;;;17.85;13.60;;;19.20;99.90;;;;;;5092255;28;20194;-73
2021/06/21 02:52:11;;;;;;;16.92;11.65;;;19.20;99.90;;;;;;5096519;28;20212;-73
2021/06/21 02:54:47;;;;;;;16.95;11.93;;;19.10;99.90;;;;;;5093240;28;20208;-73
2021/06/21 02:57:22;;;;;;;16.70;11.68;;;19.20;99.90;;;;;;5085794;28;20568;-73
2021/06/21 02:59:50;;;;;;;16.88;12.48;;;19.30;99.90;;;;;;5090746;28;20579;-73
2021/06/21 03:02:18;;;;;;;20.17;12.90;;;19.20;99.90;;;;;;5090499;28;20213;-74
2021/06/21 03:04:47;;;;;;;17.23;12.65;;;19.20;99.90;;;;;;5089799;28;20671;-73
2021/06/21 03:07:16;;;;;;;20.73;13.85;;;19.20;99.90;;;;;;5092336;28;20202;-74
2021/06/21 03:09:48;;;;;;;19.05;13.48;;;19.20;99.90;;;;;;5090459;28;20189;-73
2021/06/21 03:12:18;;;;;;;19.85;13.07;;;19.10;99.90;;;;;;5094931;28;20210;-74
2021/06/21 03:14:46;;;;;;;17.58;12.90;;;19.10;99.90;;;;;;5086217;28;20206;-71
2021/06/21 03:17:15;;;;;;;19.58;14.02;;;19.10;99.90;;;;;;5092225;28;20333;-70
2021/06/21 03:19:43;;;;;;;19.42;13.57;;;19.10;99.90;;;;;;5090947;28;20274;-70
2021/06/21 03:22:11;;;;;;;18.42;13.00;;;19.20;99.90;;;;;;5099022;28;20209;-70
2021/06/21 03:24:38;;;;;;;19.55;13.77;;;19.20;99.90;;;;;;5089169;28;20656;-70
2021/06/21 03:27:07;;;;;;;15.88;12.20;;;19.40;99.90;;;;;;5088324;28;20541;-70
2021/06/21 03:29:37;;;;;;;19.40;12.32;;;19.40;99.90;;;;;;5090121;28;20205;-70
2021/06/21 03:32:24;;;;;;;14.98;12.13;;;19.30;99.90;;;;;;5090892;28;20663;-70
2021/06/21 03:34:51;;;;;;;15.32;11.93;;;19.30;99.90;;;;;;5083730;28;20202;-70
2021/06/21 03:37:18;;;;;;;19.55;13.02;;;19.30;99.90;;;;;;5090226;28;20206;-70
2021/06/21 03:39:45;;;;;;;16.35;12.77;;;19.20;99.90;;;;;;5087328;28;20225;-74
2021/06/21 03:42:14;;;;;;;18.92;12.60;;;19.20;99.90;;;;;;5090386;28;20247;-74
2021/06/21 03:44:41;;;;;;;19.17;13.63;;;19.30;99.90;;;;;;5087836;28;20742;-73
2021/06/21 03:47:09;;;;;;;16.10;11.65;;;19.20;99.90;;;;;;5089148;28;20672;-73
2021/06/21 03:49:36;;;;;;;17.50;13.32;;;19.30;99.90;;;;;;5088935;28;20201;-73
2021/06/21 03:52:04;;;;;;;17.80;12.88;;;19.30;99.90;;;;;;5087734;28;20251;-73
2021/06/21 03:54:31;;;;;;;17.25;12.82;;;19.30;99.90;;;;;;5087966;28;20237;-73
2021/06/21 03:56:58;;;;;;;17.23;13.10;;;19.30;99.90;;;;;;5079447;28;20651;-73
2021/06/21 03:59:26;;;;;;;19.15;12.98;;;19.30;99.90;;;;;;5070695;28;20706;-73
2021/06/21 04:01:55;;;;;;;20.25;13.52;;;19.40;99.90;;;;;;5087983;28;20202;-72
2021/06/21 04:04:22;;;;;;;16.80;12.45;;;19.40;99.90;;;;;;5087096;28;20210;-72
2021/06/21 04:06:49;;;;;;;15.77;11.88;;;19.40;99.90;;;;;;5087057;28;20259;-72
2021/06/21 04:09:16;;;;;;;14.40;11.85;;;19.40;99.90;;;;;;5089866;28;20243;-72
2021/06/21 04:11:43;;;;;;;15.40;11.73;;;19.30;99.90;;;;;;5093201;28;20206;-72
2021/06/21 04:14:11;;;;;;;13.98;11.85;;;19.30;99.90;;;;;;5092242;28;20230;-72
2021/06/21 04:16:39;;;;;;;15.85;11.73;;;19.50;99.90;;;;;;5087641;28;20267;-72
2021/06/21 04:19:06;;;;;;;18.75;12.35;;;19.50;99.90;;;;;;5090381;28;20225;-72
2021/06/21 04:21:33;;;;;;;16.10;12.30;;;19.50;99.90;;;;;;5089675;28;20198;-72
2021/06/21 04:24:00;;;;;;;18.67;12.43;;;19.50;99.90;;;;;;5088210;28;20593;-72
2021/06/21 04:26:27;;;;;;;16.23;12.13;;;19.50;99.90;;;;;;5088452;28;20206;-72
2021/06/21 04:28:54;;;;;;;17.02;12.27;;;19.50;99.90;;;;;;5087935;28;20701;-72
2021/06/21 04:31:21;;;;;;;16.63;12.35;;;19.60;99.90;;;;;;5088636;28;20197;-72
2021/06/21 04:33:49;;;;;;;15.20;12.07;;;19.60;99.90;;;;;;5088062;28;20197;-73
2021/06/21 04:36:16;;;;;;;15.10;11.60;;;19.70;99.90;;;;;;5084337;28;20206;-71
2021/06/21 04:38:43;;;;;;;16.10;11.85;;;19.70;99.90;;;;;;5088203;28;20237;-70
2021/06/21 04:41:10;;;;;;;15.65;12.30;;;19.70;99.90;;;;;;5087831;28;20263;-70
2021/06/21 04:43:37;;;;;;;16.05;12.52;;;19.70;99.90;;;;;;5084140;28;20206;-70
2021/06/21 04:46:05;;;;;;;14.93;11.95;;;19.70;99.90;;;;;;5082254;28;20721;-71
2021/06/21 04:48:32;;;;;;;14.68;11.77;;;19.70;99.90;;;;;;5089335;28;20271;-71
2021/06/21 04:51:00;;;;;;;14.05;11.38;;;19.70;99.90;;;;;;5088799;28;20201;-70
2021/06/21 04:53:28;;;;;;;15.93;11.57;;;19.70;99.90;;;;;;5092519;28;20236;-70
2021/06/21 04:55:55;;;;;;;14.20;11.68;;;19.80;99.90;;;;;;5092975;28;20212;-71
2021/06/21 04:58:22;;;;;;;14.82;11.32;;;19.70;99.90;;;;;;5088256;28;20194;-71
2021/06/21 05:00:48;;;;;;;12.68;10.38;;;19.70;99.90;;;;;;5092403;28;20193;-70
2021/06/21 05:03:15;;;;;;;14.48;11.15;;;19.70;99.90;;;;;;5092090;28;20656;-71
2021/06/21 05:05:42;;;;;;;13.27;10.23;;;19.90;99.90;;;;;;5088900;28;20202;-71
2021/06/21 05:08:11;;;;;;;13.43;10.35;;;19.90;99.90;;;;;;5090009;28;20716;-71
2021/06/21 05:10:38;;;;;;;12.75;10.75;;;20.00;99.90;;;;;;5090800;28;20205;-71
2021/06/21 05:13:05;;;;;;;13.63;10.95;;;19.90;99.90;;;;;;5090142;28;20446;-71
2021/06/21 05:15:32;;;;;;;13.20;10.75;;;20.10;99.90;;;;;;5091190;28;20615;-70
2021/06/21 05:17:59;;;;;;;12.18;10.07;;;20.10;99.90;;;;;;5088086;28;20198;-71
2021/06/21 05:20:26;;;;;;;12.43;9.88;;;20.10;99.90;;;;;;5091605;28;20248;-71
2021/06/21 05:22:53;;;;;;;11.50;9.35;;;20.20;99.90;;;;;;5089494;28;20251;-71
2021/06/21 05:25:21;;;;;;;12.35;9.35;;;20.10;99.90;;;;;;5090810;28;20267;-71
2021/06/21 05:27:48;;;;;;;10.40;8.43;;;20.10;99.90;;;;;;5091413;28;20197;-71
2021/06/21 05:30:16;;;;;;;11.80;9.55;;;20.00;99.90;;;;;;5093289;28;20603;-71
2021/06/21 05:32:43;;;;;;;11.98;9.18;;;20.10;99.90;;;;;;5084930;28;20251;-71
2021/06/21 05:35:12;;;;;;;13.45;10.50;;;20.30;99.90;;;;;;5107117;28;20647;-71
2021/06/21 05:37:39;;;;;;;12.05;9.18;;;20.30;99.90;;;;;;5086156;28;20201;-71
2021/06/21 05:40:07;;;;;;;11.70;10.50;;;20.20;99.90;;;;;;5092275;28;20955;-71
2021/06/21 05:42:36;;;;;;;12.75;10.77;;;20.40;99.90;;;;;;5093754;28;20209;-71
2021/06/21 05:45:03;;;;;;;12.38;10.45;;;20.40;99.90;;;;;;5092774;28;20201;-71
2021/06/21 05:47:30;;;;;;;13.35;9.65;;;20.50;99.90;;;;;;5094060;28;20251;-71
2021/06/21 05:49:57;;;;;;;7.57;6.60;;;20.50;99.90;;;;;;5092118;28;20279;-71
2021/06/21 05:52:24;;;;;;;7.70;6.65;;;20.60;99.90;;;;;;5093933;28;20197;-71
2021/06/21 05:54:58;;;;;;;9.82;6.80;;;20.70;99.90;;;;;;5092952;28;20316;-71
2021/06/21 05:57:25;;;;;;;9.93;7.32;;;20.90;99.90;;;;;;5081606;28;20299;-71
2021/06/21 05:59:54;;;;;;;8.63;7.30;;;21.00;99.90;;;;;;5085554;28;20695;-71
2021/06/21 06:02:21;;;;;;;7.20;6.38;;;21.10;99.90;;;;;;5080618;28;20727;-71
2021/06/21 06:04:48;;;;;;;7.90;6.65;;;21.00;99.90;;;;;;5091745;28;20213;-71
2021/06/21 06:07:16;;;;;;;7.68;6.88;;;20.90;99.90;;;;;;5104825;28;20209;-71
2021/06/21 06:09:44;;;;;;;7.60;6.80;;;20.70;99.90;;;;;;5092303;28;20316;-71
2021/06/21 06:12:11;;;;;;;7.85;7.05;;;20.90;99.90;;;;;;5093810;28;20219;-71
2021/06/21 06:14:38;;;;;;;8.32;7.07;;;21.10;99.90;;;;;;5093671;28;20604;-71
2021/06/21 06:17:07;;;;;;;8.65;7.20;;;20.90;99.90;;;;;;5092765;28;20667;-73
2021/06/21 06:19:33;;;;;;;9.23;7.50;;;21.00;99.90;;;;;;5091811;28;20740;-73
2021/06/21 06:22:01;;;;;;;7.97;7.15;;;21.00;99.90;;;;;;5091251;28;20274;-72
2021/06/21 06:24:28;;;;;;;8.65;7.57;;;20.90;99.90;;;;;;5091218;28;20197;-72
2021/06/21 06:26:54;;;;;;;9.63;7.70;;;20.90;99.90;;;;;;5091731;28;20194;-72
2021/06/21 06:29:21;;;;;;;8.63;7.40;;;20.70;99.90;;;;;;5092975;28;20205;-73
2021/06/21 06:31:48;;;;;;;9.00;7.30;;;20.70;99.90;;;;;;5091176;28;20198;-72
2021/06/21 06:34:17;;;;;;;7.53;6.80;;;20.60;99.90;;;;;;5096920;28;20209;-72
2021/06/21 06:36:44;;;;;;;8.82;6.55;;;20.60;99.90;;;;;;5089213;28;20647;-72
2021/06/21 06:39:11;;;;;;;8.18;7.20;;;20.80;99.90;;;;;;5091740;28;20748;-71
2021/06/21 06:41:38;;;;;;;9.57;6.88;;;20.70;99.90;;;;;;5092759;28;20197;-71
2021/06/21 06:44:06;;;;;;;8.85;7.40;;;20.80;99.90;;;;;;5092430;28;20605;-71
2021/06/21 06:46:33;;;;;;;11.48;7.28;;;20.70;99.90;;;;;;5092729;28;20206;-72
2021/06/21 06:49:01;;;;;;;8.13;7.05;;;20.80;99.90;;;;;;5091557;28;20270;-72
2021/06/21 06:51:34;;;;;;;9.00;6.72;;;20.90;99.90;;;;;;5092675;28;20666;-72
2021/06/21 06:54:05;;;;;;;9.77;6.95;;;20.90;99.90;;;;;;5090780;28;20288;-72
2021/06/21 06:59:17;;;;;;;11.43;7.05;;;20.90;99.90;;;;;;5099899;28;20232;-72
2021/06/21 07:01:44;;;;;;;8.07;6.85;;;20.80;99.90;;;;;;5091641;28;20647;-72
2021/06/21 07:04:12;;;;;;;10.55;6.30;;;21.00;99.90;;;;;;5090714;28;20206;-73
2021/06/21 07:06:40;;;;;;;8.70;6.38;;;21.10;99.90;;;;;;5083570;28;20636;-72
2021/06/21 07:09:07;;;;;;;7.35;6.32;;;21.20;99.90;;;;;;5084934;28;20206;-72
2021/06/21 07:11:36;;;;;;;10.27;6.82;;;21.20;99.90;;;;;;5083647;28;20259;-71
2021/06/21 07:14:04;;;;;;;10.75;6.28;;;21.20;99.90;;;;;;5091642;28;20206;-71
2021/06/21 07:16:31;;;;;;;8.75;6.68;;;21.10;99.90;;;;;;5090639;28;20263;-71
2021/06/21 07:18:58;;;;;;;10.27;6.75;;;21.00;99.90;;;;;;5090480;28;20251;-71
2021/06/21 07:21:25;;;;;;;9.73;7.45;;;21.10;99.90;;;;;;5089270;28;20206;-71
2021/06/21 07:23:54;;;;;;;10.20;7.35;;;21.20;99.90;;;;;;5090181;28;20247;-71
2021/06/21 07:26:22;;;;;;;10.73;8.48;;;21.30;99.90;;;;;;5090807;28;20256;-71
2021/06/21 07:28:50;;;;;;;8.70;6.78;;;21.30;99.90;;;;;;5091803;28;20267;-72
2021/06/21 07:31:17;;;;;;;9.57;6.93;;;21.30;99.90;;;;;;5090065;28;20258;-73
2021/06/21 07:33:44;;;;;;;13.02;7.35;;;21.40;99.90;;;;;;5096482;28;20655;-73
2021/06/21 07:36:11;;;;;;;11.75;7.03;;;21.40;99.90;;;;;;5083385;28;20206;-73
2021/06/21 07:38:40;;;;;;;9.60;6.63;;;21.50;99.90;;;;;;5086171;28;20472;-73
2021/06/21 07:41:09;;;;;;;7.30;6.60;;;21.50;99.90;;;;;;5089998;28;20222;-73
2021/06/21 07:43:36;;;;;;;11.13;7.10;;;21.60;99.90;;;;;;5091561;28;20644;-71
2021/06/21 07:46:04;;;;;;;11.85;6.78;;;21.70;99.90;;;;;;5086867;28;20672;-71
2021/06/21 07:48:31;;;;;;;10.18;5.75;;;21.70;99.90;;;;;;5080959;28;20235;-71
2021/06/21 07:50:58;;;;;;;10.35;6.53;;;21.60;99.90;;;;;;5086801;28;20210;-71
2021/06/21 07:53:26;;;;;;;9.23;6.22;;;21.60;99.90;;;;;;5081707;28;20255;-71
2021/06/21 07:55:53;;;;;;;9.23;6.60;;;21.70;99.90;;;;;;5082740;28;20895;-71
2021/06/21 07:58:21;;;;;;;11.40;6.60;;;21.60;99.90;;;;;;5083853;28;20206;-71
2021/06/21 08:00:48;;;;;;;7.07;5.88;;;21.60;99.90;;;;;;5085076;28;20274;-71
2021/06/21 08:03:15;;;;;;;9.43;6.72;;;21.70;99.90;;;;;;5081375;28;20213;-71
2021/06/21 08:05:47;;;;;;;8.10;6.32;;;21.90;99.90;;;;;;5079824;28;20619;-71
2021/06/21 08:08:14;;;;;;;12.48;7.40;;;22.10;99.90;;;;;;5087039;28;20209;-71
2021/06/21 08:10:41;;;;;;;12.10;6.97;;;22.30;99.90;;;;;;5082602;28;20274;-71
2021/06/21 08:13:08;;;;;;;10.18;4.93;;;22.30;99.90;;;;;;5085804;28;20275;-71
2021/06/21 08:15:37;;;;;;;10.55;5.43;;;21.90;99.90;;;;;;5085840;28;20243;-71
2021/06/21 08:18:04;;;;;;;8.02;4.32;;;21.90;99.90;;;;;;5082379;28;20203;-71
2021/06/21 08:20:32;;;;;;;5.13;3.13;;;21.90;99.90;;;;;;5086713;28;20217;-71
2021/06/21 08:22:59;;;;;;;7.00;3.17;;;21.90;99.90;;;;;;5080611;28;20206;-72
2021/06/21 08:25:26;;;;;;;10.48;3.28;;;21.60;99.90;;;;;;5080760;28;20326;-73
2021/06/21 08:27:53;;;;;;;7.32;3.28;;;21.60;99.90;;;;;;5077936;28;20224;-73
2021/06/21 08:30:20;;;;;;;7.47;3.50;;;22.00;99.90;;;;;;5082330;28;20209;-72
2021/06/21 08:32:49;;;;;;;9.32;3.42;;;22.20;99.90;;;;;;5078926;28;20243;-72
2021/06/21 08:35:16;;;;;;;9.90;3.13;;;22.30;99.90;;;;;;5083906;28;20510;-72
2021/06/21 08:37:43;;;;;;;4.95;3.20;;;22.40;99.90;;;;;;5088359;28;20205;-72
2021/06/21 08:40:12;;;;;;;8.18;3.38;;;22.70;99.90;;;;;;5079813;28;20221;-72
2021/06/21 08:42:40;;;;;;;7.70;3.58;;;22.80;99.90;;;;;;5076524;28;20282;-72
2021/06/21 08:45:08;;;;;;;7.53;3.35;;;22.90;99.90;;;;;;5080188;28;20202;-72
2021/06/21 08:47:36;;;;;;;8.20;3.47;;;22.80;99.90;;;;;;5084628;28;20267;-72
2021/06/21 08:50:07;;;;;;;8.05;3.03;;;22.40;99.90;;;;;;5079389;28;20576;-71
2021/06/21 08:52:35;;;;;;;9.98;2.95;;;22.30;99.90;;;;;;5086513;28;20591;-71
2021/06/21 08:55:04;;;;;;;6.15;3.10;;;22.40;99.90;;;;;;5089579;28;20207;-71
2021/06/21 08:57:32;;;;;;;7.20;2.60;;;22.50;99.90;;;;;;5080771;28;20245;-71
2021/06/21 08:59:59;;;;;;;8.00;3.13;;;22.40;99.90;;;;;;5077566;28;20228;-71
2021/06/21 09:02:28;;;;;;;10.50;3.03;;;22.40;99.90;;;;;;5081163;28;20208;-71
2021/06/21 09:04:56;;;;;;;6.88;2.83;;;22.60;99.90;;;;;;5083928;28;20674;-70
2021/06/21 09:07:26;;;;;;;9.80;3.10;;;22.80;99.90;;;;;;5081041;28;20205;-71
2021/06/21 09:09:54;;;;;;;7.93;3.00;;;23.40;99.90;;;;;;5083897;28;20198;-72
2021/06/21 09:12:27;;;;;;;6.70;2.85;;;23.90;99.90;;;;;;5075998;28;20206;-72
2021/06/21 09:14:56;;;;;;;14.07;3.42;;;23.70;99.90;;;;;;5080788;28;20198;-71
2021/06/21 09:17:25;;;;;;;9.25;2.67;;;23.90;99.90;;;;;;5088299;28;20649;-71
2021/06/21 09:19:55;;;;;;;9.25;3.33;;;23.60;99.90;;;;;;5079022;28;20378;-71
2021/06/21 09:22:26;;;;;;;7.00;3.00;;;23.10;99.90;;;;;;5083904;28;20659;-72
2021/06/21 09:24:54;;;;;;;9.10;3.10;;;23.20;99.90;;;;;;5081478;28;20207;-72
2021/06/21 09:27:23;;;;;;;8.07;2.97;;;23.00;99.90;;;;;;5077190;28;20661;-72
2021/06/21 09:29:52;;;;;;;7.57;3.00;;;23.10;99.90;;;;;;5080315;28;20203;-71
2021/06/21 09:32:19;;;;;;;5.63;2.53;;;23.10;99.90;;;;;;5077230;28;20214;-71
2021/06/21 09:34:47;;;;;;;7.45;3.05;;;23.20;99.90;;;;;;5078438;28;20194;-71
2021/06/21 09:37:16;;;;;;;10.93;3.20;;;23.70;99.90;;;;;;5079884;28;20259;-71
2021/06/21 09:39:45;;;;;;;6.30;2.60;;;24.40;99.90;;;;;;5077539;28;20319;-71
2021/06/21 09:42:19;;;;;;;10.50;3.17;;;24.30;99.90;;;;;;5085703;28;20202;-71
2021/06/21 09:44:48;;;;;;;6.47;2.72;;;24.80;99.90;;;;;;5090506;28;20205;-71
2021/06/21 09:47:28;;;;;;;6.03;2.70;;;25.00;99.90;;;;;;5085980;28;20210;-72
2021/06/21 09:50:14;;;;;;;7.25;2.83;;;24.80;99.90;;;;;;5078344;28;20594;-73
2021/06/21 09:52:50;;;;;;;7.95;2.65;;;25.00;99.90;;;;;;5089016;28;20263;-72
2021/06/21 09:55:27;;;;;;;7.82;2.80;;;24.50;99.90;;;;;;5081773;28;20334;-72
2021/06/21 09:58:06;;;;;;;6.05;3.03;;;24.50;99.90;;;;;;5087996;28;20202;-72
2021/06/21 10:00:34;;;;;;;10.68;2.80;;;25.10;99.90;;;;;;5084439;28;20757;-73
2021/06/21 10:03:09;;;;;;;6.38;2.63;;;25.30;99.90;;;;;;5084776;28;20253;-72
2021/06/21 10:05:39;;;;;;;6.68;2.50;;;25.80;99.90;;;;;;5089353;28;20259;-72
2021/06/21 10:08:06;;;;;;;7.28;2.50;;;26.00;99.90;;;;;;5083199;28;20708;-73
2021/06/21 10:10:36;;;;;;;4.72;2.33;;;26.50;99.90;;;;;;5087374;28;20293;-72
2021/06/21 10:13:05;;;;;;;6.07;2.20;;;26.40;99.90;;;;;;5078036;28;20204;-72
2021/06/21 10:15:32;;;;;;;6.43;2.95;;;26.00;99.90;;;;;;5086157;28;20577;-73
2021/06/21 10:17:59;;;;;;;5.15;2.38;;;25.70;99.90;;;;;;5080995;28;20254;-72
2021/06/21 10:20:26;;;;;;;6.07;2.63;;;25.80;99.90;;;;;;5081294;28;20249;-73
2021/06/21 10:22:55;;;;;;;7.15;2.70;;;25.60;99.90;;;;;;5080748;28;20255;-71
2021/06/21 10:25:22;;;;;;;7.43;2.65;;;25.60;99.90;;;;;;5087505;28;20213;-71
2021/06/21 10:27:51;;;;;;;5.15;2.28;;;25.20;99.90;;;;;;5089399;28;20240;-71
2021/06/21 10:30:21;;;;;;;10.95;2.70;;;24.90;99.90;;;;;;5084753;28;20202;-71
2021/06/21 10:32:49;;;;;;;5.25;2.50;;;25.00;99.90;;;;;;5084396;28;20489;-72
2021/06/21 10:35:17;;;;;;;7.05;2.60;;;24.80;99.90;;;;;;5083879;28;20599;-72
2021/06/21 10:38:05;;;;;;;8.30;3.28;;;24.50;99.90;;;;;;5084984;28;20197;-72
2021/06/21 10:40:32;;;;;;;4.70;2.45;;;24.80;99.90;;;;;;5084964;28;20225;-72
2021/06/21 10:43:00;;;;;;;3.67;2.60;;;24.80;99.90;;;;;;5082334;28;20227;-72
2021/06/21 10:45:29;;;;;;;5.35;2.30;;;25.10;99.90;;;;;;5080782;28;20212;-72
2021/06/21 10:48:10;;;;;;;6.30;3.35;;;24.90;99.90;;;;;;5078006;28;20516;-72
2021/06/21 10:50:51;;;;;;;7.88;2.60;;;24.80;99.90;;;;;;5078395;28;20206;-72
2021/06/21 10:53:19;;;;;;;7.05;2.67;;;24.50;99.90;;;;;;5081035;28;20197;-72
2021/06/21 10:55:51;;;;;;;7.95;2.50;;;24.50;99.90;;;;;;5081763;28;20198;-72
2021/06/21 10:58:47;;;;;;;5.75;2.35;;;24.30;99.90;;;;;;5079713;28;20640;-72
2021/06/21 11:01:20;;;;;;;5.47;2.65;;;24.40;99.90;;;;;;5085437;28;20218;-72
2021/06/21 11:03:47;;;;;;;4.95;2.40;;;25.20;99.90;;;;;;5082039;28;20301;-72
2021/06/21 11:06:39;;;;;;;7.63;3.03;;;25.40;99.90;;;;;;5081389;28;20221;-72
2021/06/21 11:09:08;;;;;;;5.70;2.78;;;25.70;99.90;;;;;;5059851;28;20259;-72
2021/06/21 11:11:51;;;;;;;7.47;3.08;;;26.10;99.90;;;;;;5082447;28;20195;-72
2021/06/21 11:14:34;;;;;;;6.50;2.83;;;26.50;99.90;;;;;;5076894;28;20255;-72
2021/06/21 11:17:24;;;;;;;6.38;2.65;;;27.10;99.90;;;;;;5078406;28;20646;-72
2021/06/21 11:19:51;;;;;;;5.80;2.30;;;26.80;99.90;;;;;;5084444;28;20284;-72
2021/06/21 11:22:38;;;;;;;5.97;2.33;;;27.00;99.90;;;;;;5080481;28;20291;-72
2021/06/21 11:25:20;;;;;;;7.45;2.40;;;26.70;99.90;;;;;;5081383;28;20493;-71
2021/06/21 11:27:47;;;;;;;5.45;2.42;;;26.50;99.90;;;;;;5082073;28;20198;-71
2021/06/21 11:30:41;;;;;;;2.70;2.17;;;26.70;99.90;;;;;;5076945;28;20229;-71
2021/06/21 11:33:14;;;;;;;4.82;2.45;;;25.70;99.90;;;;;;5081719;28;20683;-71
2021/06/21 11:35:54;;;;;;;8.07;2.72;;;25.80;99.90;;;;;;5083131;28;20202;-72
2021/06/21 11:38:33;;;;;;;4.20;2.10;;;25.80;99.90;;;;;;5058681;28;20210;-72
2021/06/21 11:41:33;;;;;;;3.80;2.30;;;26.50;99.90;;;;;;5060480;28;20221;-71
2021/06/21 11:44:02;;;;;;;6.60;2.55;;;25.70;99.90;;;;;;5081031;28;20271;-70
2021/06/21 11:46:51;;;;;;;3.92;2.63;;;25.90;99.90;;;;;;5084075;28;20243;-77
2021/06/21 11:49:19;;;;;;;3.75;2.15;;;25.70;99.90;;;;;;5080888;28;20297;-71
2021/06/21 11:52:08;;;;;;;2.25;2.00;;;25.80;99.90;;;;;;5086818;28;20209;-71
2021/06/21 11:54:39;;;;;;;4.57;2.38;;;26.30;99.90;;;;;;5080219;28;20266;-71
2021/06/21 11:57:08;;;;;;;3.95;2.20;;;26.60;99.90;;;;;;5083319;28;20202;-70
2021/06/21 11:59:37;;;;;;;4.93;1.98;;;26.60;99.90;;;;;;5086314;28;20194;-70
2021/06/21 12:02:08;;;;;;;3.08;1.98;;;26.20;99.90;;;;;;5087390;28;20226;-70
2021/06/21 12:04:35;;;;;;;3.08;1.83;;;26.10;99.90;;;;;;5084055;28;20888;-72
2021/06/21 12:07:03;;;;;;;7.20;2.95;;;25.80;99.90;;;;;;5085514;28;20229;-73
2021/06/21 12:09:30;;;;;;;3.13;2.13;;;25.70;99.90;;;;;;5088881;28;20202;-72
2021/06/21 12:11:58;;;;;;;4.47;2.13;;;25.70;99.90;;;;;;5083200;28;20218;-72
2021/06/21 12:14:27;;;;;;;4.22;2.13;;;25.50;99.90;;;;;;5088776;28;20560;-72
2021/06/21 12:17:03;;;;;;;2.53;2.25;;;25.60;99.90;;;;;;5087165;28;20247;-73
2021/06/21 12:19:32;;;;;;;3.65;2.28;;;25.90;99.90;;;;;;5090065;28;20204;-73
2021/06/21 12:22:01;;;;;;;5.90;2.17;;;26.30;99.90;;;;;;5092839;28;20572;-72
2021/06/21 12:24:29;;;;;;;5.43;2.15;;;26.30;99.90;;;;;;5093397;28;20216;-72
2021/06/21 12:26:59;;;;;;;3.50;2.45;;;25.50;99.90;;;;;;5093209;28;20632;-73
2021/06/21 12:29:29;;;;;;;4.72;2.05;;;25.40;99.90;;;;;;5091407;28;20202;-71
2021/06/21 12:32:01;;;;;;;2.45;2.03;;;25.60;99.90;;;;;;5084845;28;20203;-72
2021/06/21 12:34:47;;;;;;;4.55;2.17;;;25.40;99.90;;;;;;5091620;28;20569;-72
2021/06/21 12:37:19;;;;;;;4.93;2.80;;;25.50;99.90;;;;;;5081044;28;20576;-72
2021/06/21 12:39:47;;;;;;;5.60;2.38;;;25.50;99.90;;;;;;5087548;28;20541;-71
2021/06/21 12:42:17;;;;;;;4.47;2.35;;;25.90;99.90;;;;;;5081697;28;20213;-72
2021/06/21 12:44:45;;;;;;;5.00;3.03;;;26.00;99.90;;;;;;5089989;28;20199;-72
2021/06/21 12:47:17;;;;;;;2.78;2.38;;;26.10;99.90;;;;;;5088280;28;20209;-72
2021/06/21 12:49:47;;;;;;;2.92;2.15;;;26.30;99.90;;;;;;5086845;28;20994;-70
2021/06/21 12:52:14;;;;;;;5.97;2.65;;;26.00;99.90;;;;;;5085365;28;20455;-70
2021/06/21 12:54:42;;;;;;;5.22;2.70;;;25.70;99.90;;;;;;5087373;28;20198;-70